Time;durP1;ratioP1;P1;durP2;ratioP2;P2;SDS_P1;SDS_P2;PMS_P1;PMS_P2;Temp;Humidity;BMP_temperature;BMP_pressure;BME280_temperature;BME280_humidity;BME280_pressure;Samples;Min_cycle;Max_cycle;Signal;HPM_P1;HPM_P2
2021/11/04 00:01:14;;;;;;;338.08;65.32;;;6.80;99.90;;;;;;5117118;28;20058;-90
2021/11/04 00:03:40;;;;;;;375.38;65.82;;;6.80;99.90;;;;;;5136778;27;20049;-90
2021/11/04 00:06:07;;;;;;;191.15;45.47;;;6.80;99.90;;;;;;5139590;27;20424;-89
2021/11/04 00:08:33;;;;;;;128.35;40.40;;;6.80;99.90;;;;;;5138207;27;20465;-89
2021/11/04 00:10:59;;;;;;;191.73;49.45;;;6.90;99.90;;;;;;5139178;27;20023;-89
2021/11/04 00:13:25;;;;;;;532.28;86.13;;;6.70;99.90;;;;;;5138911;27;20042;-89
2021/11/04 00:15:51;;;;;;;442.23;72.30;;;6.80;99.90;;;;;;5137953;27;20115;-90
2021/11/04 00:18:17;;;;;;;468.02;77.45;;;6.80;99.90;;;;;;5121239;27;20027;-90
2021/11/04 00:20:42;;;;;;;228.23;50.65;;;6.80;99.90;;;;;;5137872;27;20487;-89
2021/11/04 00:23:08;;;;;;;168.35;47.88;;;6.80;99.90;;;;;;5137670;27;20027;-89
2021/11/04 00:25:34;;;;;;;128.35;40.72;;;6.90;99.90;;;;;;5120757;27;20039;-89
2021/11/04 00:28:00;;;;;;;315.05;58.92;;;6.90;99.90;;;;;;5137869;27;20050;-89
2021/11/04 00:30:26;;;;;;;212.15;53.50;;;6.90;99.90;;;;;;5138684;27;20074;-89
2021/11/04 00:32:55;;;;;;;536.67;75.13;;;7.00;99.90;;;;;;5137513;27;20061;-89
2021/11/04 00:35:21;;;;;;;223.13;50.63;;;7.00;99.90;;;;;;5137672;27;20027;-89
2021/11/04 00:37:49;;;;;;;436.67;70.75;;;7.00;99.90;;;;;;5137567;27;20057;-89
2021/11/04 00:40:18;;;;;;;398.08;64.85;;;7.00;99.90;;;;;;5137450;27;20023;-90
2021/11/04 00:42:44;;;;;;;615.17;82.07;;;7.00;99.90;;;;;;5137104;27;20043;-89
2021/11/04 00:45:10;;;;;;;619.08;77.13;;;7.10;99.90;;;;;;5137586;27;20506;-89
2021/11/04 00:47:36;;;;;;;231.40;45.10;;;7.00;99.90;;;;;;5127499;27;20470;-89
2021/11/04 00:50:04;;;;;;;1016.13;118.32;;;7.00;99.90;;;;;;5118197;28;20016;-90
2021/11/04 00:52:29;;;;;;;596.92;86.93;;;7.10;99.90;;;;;;5116590;28;20020;-89
2021/11/04 00:54:55;;;;;;;344.90;57.53;;;7.10;99.90;;;;;;5116371;28;20057;-89
2021/11/04 00:57:22;;;;;;;513.83;84.43;;;7.10;99.90;;;;;;5116446;28;20023;-90
2021/11/04 00:59:55;;;;;;;185.77;47.45;;;7.10;99.90;;;;;;5116946;28;20090;-89
2021/11/04 01:02:21;;;;;;;222.48;43.67;;;7.10;99.90;;;;;;5122849;27;20023;-90
2021/11/04 01:04:47;;;;;;;352.10;57.40;;;7.10;99.90;;;;;;5137403;27;20457;-90
2021/11/04 01:07:13;;;;;;;197.13;48.25;;;7.10;99.90;;;;;;5138149;27;20019;-90
2021/11/04 01:09:39;;;;;;;334.55;55.00;;;7.10;99.90;;;;;;5137035;27;20020;-90
2021/11/04 01:12:05;;;;;;;300.90;53.78;;;7.20;99.90;;;;;;5136910;27;20534;-90
2021/11/04 01:14:31;;;;;;;195.45;44.78;;;7.20;99.90;;;;;;5136829;27;20381;-90
2021/11/04 01:16:58;;;;;;;349.60;60.30;;;7.20;99.90;;;;;;5136511;27;20030;-90
2021/11/04 01:19:24;;;;;;;214.65;46.28;;;7.20;99.90;;;;;;5136950;27;20048;-90
2021/11/04 01:21:50;;;;;;;220.30;43.38;;;7.20;99.90;;;;;;5136539;27;20023;-90
2021/11/04 01:24:16;;;;;;;131.93;37.97;;;7.30;99.90;;;;;;5137933;27;20481;-90
2021/11/04 01:26:43;;;;;;;341.00;58.90;;;7.40;99.90;;;;;;5136666;27;20038;-90
2021/11/04 01:29:09;;;;;;;287.35;48.72;;;7.50;99.90;;;;;;5136710;27;20019;-90
2021/11/04 01:31:35;;;;;;;395.23;57.53;;;7.60;99.90;;;;;;5136471;27;20497;-90
2021/11/04 01:34:02;;;;;;;586.88;80.13;;;7.60;99.90;;;;;;5136140;27;20023;-90
2021/11/04 01:36:28;;;;;;;349.05;60.50;;;7.70;99.90;;;;;;5136105;27;20072;-90
2021/11/04 01:38:54;;;;;;;468.63;64.65;;;7.60;99.90;;;;;;5136384;27;20023;-90
2021/11/04 01:41:19;;;;;;;331.88;59.33;;;7.60;99.90;;;;;;5135876;27;20047;-90
2021/11/04 01:43:45;;;;;;;172.77;44.75;;;7.70;99.90;;;;;;5136141;27;20027;-90
2021/11/04 01:46:12;;;;;;;303.80;59.90;;;7.70;99.90;;;;;;5136001;27;20041;-90
2021/11/04 01:48:39;;;;;;;295.98;65.50;;;7.60;99.90;;;;;;5136019;27;20483;-90
2021/11/04 01:51:05;;;;;;;398.60;85.25;;;7.60;99.90;;;;;;5136600;27;20122;-90
2021/11/04 01:53:31;;;;;;;603.17;107.80;;;7.60;99.90;;;;;;5135942;27;20059;-89
2021/11/04 01:55:56;;;;;;;370.30;99.15;;;7.50;99.90;;;;;;5135762;27;20035;-89
2021/11/04 01:58:22;;;;;;;999.80;166.82;;;7.60;99.90;;;;;;5136110;27;20027;-89
2021/11/04 02:00:48;;;;;;;467.67;122.45;;;7.60;99.90;;;;;;5135876;27;20097;-90
2021/11/04 02:03:38;;;;;;;1217.00;213.73;;;7.60;99.90;;;;;;5135951;27;20510;-90
2021/11/04 02:06:41;;;;;;;420.40;123.35;;;7.60;99.90;;;;;;5136154;27;20019;-90
2021/11/04 02:09:13;;;;;;;331.77;117.90;;;7.60;99.90;;;;;;5135910;27;20023;-90
2021/11/04 02:11:54;;;;;;;358.73;110.80;;;7.60;99.90;;;;;;5137264;27;20047;-90
2021/11/04 02:14:29;;;;;;;1371.32;202.27;;;7.60;99.90;;;;;;5135884;27;20019;-90
2021/11/04 02:16:58;;;;;;;465.13;104.00;;;7.60;99.90;;;;;;5135753;27;20030;-90
2021/11/04 02:19:29;;;;;;;212.05;83.88;;;7.60;99.90;;;;;;5135130;27;20027;-90
2021/11/04 02:22:00;;;;;;;287.42;81.78;;;7.50;99.90;;;;;;5135486;27;20031;-90
2021/11/04 02:24:56;;;;;;;592.38;109.15;;;7.60;99.90;;;;;;5135376;27;20023;-90
2021/11/04 02:27:22;;;;;;;476.33;100.43;;;7.60;99.90;;;;;;5135198;27;20538;-90
2021/11/04 02:29:49;;;;;;;278.50;76.97;;;7.60;99.90;;;;;;5136764;27;20026;-90
2021/11/04 02:32:15;;;;;;;420.38;94.70;;;7.60;99.90;;;;;;5135855;27;20053;-90
2021/11/04 02:34:42;;;;;;;234.75;72.10;;;7.60;99.90;;;;;;5136225;27;20031;-90
2021/11/04 02:37:09;;;;;;;500.05;114.30;;;7.60;99.90;;;;;;5118451;27;20057;-90
2021/11/04 02:39:36;;;;;;;598.47;138.98;;;7.60;99.90;;;;;;5118048;27;20031;-90
2021/11/04 02:42:03;;;;;;;972.10;179.38;;;7.40;99.90;;;;;;5117983;27;20082;-89
2021/11/04 02:44:29;;;;;;;1057.82;196.65;;;7.50;99.90;;;;;;5134544;27;20080;-90
2021/11/04 02:46:56;;;;;;;456.83;122.60;;;7.50;99.90;;;;;;5135488;27;20023;-90
2021/11/04 02:49:27;;;;;;;1070.68;196.95;;;7.50;99.90;;;;;;5134932;27;20031;-90
2021/11/04 02:51:54;;;;;;;1297.80;192.38;;;7.50;99.90;;;;;;5134834;27;20076;-90
2021/11/04 02:54:19;;;;;;;503.67;117.95;;;7.50;99.90;;;;;;5134845;27;20079;-89
2021/11/04 02:56:52;;;;;;;448.83;104.18;;;7.50;99.90;;;;;;5134981;27;20023;-90
2021/11/04 02:59:20;;;;;;;506.00;108.22;;;7.50;99.90;;;;;;5114232;28;20055;-90
2021/11/04 03:01:49;;;;;;;1076.03;145.38;;;7.60;99.90;;;;;;5134038;27;20031;-90
2021/11/04 03:04:16;;;;;;;365.30;74.32;;;7.60;99.90;;;;;;5134614;27;20048;-89
2021/11/04 03:06:42;;;;;;;374.10;66.90;;;7.60;99.90;;;;;;5134850;27;20469;-89
2021/11/04 03:09:08;;;;;;;392.10;59.47;;;7.70;99.90;;;;;;5134726;27;20027;-90
2021/11/04 03:11:34;;;;;;;446.58;51.67;;;7.70;99.90;;;;;;5135638;27;20053;-90
2021/11/04 03:14:00;;;;;;;463.20;46.83;;;7.60;99.90;;;;;;5134256;27;20024;-90
2021/11/04 03:16:30;;;;;;;337.08;37.97;;;7.70;99.90;;;;;;5088364;28;20066;-90
2021/11/04 03:18:57;;;;;;;332.73;39.35;;;7.70;99.90;;;;;;5130785;27;20023;-90
2021/11/04 03:21:26;;;;;;;266.60;32.58;;;7.60;99.90;;;;;;5131285;27;20027;-90
2021/11/04 03:23:52;;;;;;;363.02;42.83;;;7.60;99.90;;;;;;5115309;28;20469;-90
2021/11/04 03:26:18;;;;;;;403.33;42.58;;;7.50;99.90;;;;;;5113799;28;20035;-90
2021/11/04 03:28:45;;;;;;;332.50;38.95;;;7.50;99.90;;;;;;5119305;27;20015;-91
2021/11/04 03:31:12;;;;;;;215.27;31.13;;;7.50;99.90;;;;;;5134245;27;20042;-90
2021/11/04 03:33:41;;;;;;;259.67;33.30;;;7.50;99.90;;;;;;5117482;28;20027;-90
2021/11/04 03:36:07;;;;;;;313.23;36.90;;;7.60;99.90;;;;;;5134002;27;20354;-90
2021/11/04 03:38:34;;;;;;;330.70;38.83;;;7.60;99.90;;;;;;5134484;27;20029;-90
2021/11/04 03:41:00;;;;;;;314.85;34.88;;;7.60;99.90;;;;;;5134157;27;20497;-90
2021/11/04 03:43:27;;;;;;;225.65;31.88;;;7.70;99.90;;;;;;5134116;28;20442;-90
2021/11/04 03:45:53;;;;;;;324.88;35.90;;;7.70;99.90;;;;;;5133990;28;20020;-90
2021/11/04 03:48:19;;;;;;;261.38;29.65;;;7.80;99.90;;;;;;5134407;28;20381;-90
2021/11/04 03:50:46;;;;;;;211.65;31.40;;;7.80;99.90;;;;;;5133939;28;20026;-90
2021/11/04 03:53:14;;;;;;;216.65;25.30;;;7.80;99.90;;;;;;5133950;28;20031;-90
2021/11/04 03:55:40;;;;;;;257.67;35.35;;;7.80;99.90;;;;;;5134023;28;20027;-90
2021/11/04 03:58:08;;;;;;;261.75;33.03;;;7.90;99.90;;;;;;5133967;28;20027;-90
2021/11/04 04:00:34;;;;;;;214.85;29.80;;;7.80;99.90;;;;;;5121595;28;20089;-90
2021/11/04 04:03:00;;;;;;;236.48;33.13;;;7.80;99.90;;;;;;5132777;28;20019;-90
2021/11/04 04:05:31;;;;;;;123.80;23.70;;;7.80;99.90;;;;;;5133526;28;20043;-91
2021/11/04 04:07:58;;;;;;;183.02;31.90;;;7.80;99.90;;;;;;5133961;28;20060;-91
2021/11/04 04:10:25;;;;;;;117.32;26.20;;;7.80;99.90;;;;;;5133873;28;20023;-91
2021/11/04 04:12:51;;;;;;;128.82;30.45;;;7.80;99.90;;;;;;5134009;28;20055;-91
2021/11/04 04:15:18;;;;;;;238.65;39.08;;;7.80;99.90;;;;;;5134627;27;20031;-90
2021/11/04 04:17:43;;;;;;;168.10;37.67;;;7.80;99.90;;;;;;5117414;28;20027;-90
2021/11/04 04:20:10;;;;;;;244.55;39.22;;;7.80;99.90;;;;;;5133742;28;20023;-91
2021/11/04 04:22:35;;;;;;;188.32;34.05;;;7.80;99.90;;;;;;5117042;28;20057;-91
2021/11/04 04:25:02;;;;;;;179.40;33.00;;;7.80;99.90;;;;;;5138833;27;20023;-90
2021/11/04 04:27:28;;;;;;;157.00;31.13;;;7.80;99.90;;;;;;5133911;28;20026;-90
2021/11/04 04:29:54;;;;;;;123.45;26.00;;;7.80;99.90;;;;;;5133633;28;20019;-90
2021/11/04 04:32:19;;;;;;;181.07;32.55;;;7.80;99.90;;;;;;5133580;28;20115;-90
2021/11/04 04:34:45;;;;;;;142.85;30.40;;;7.90;99.90;;;;;;5116646;28;20477;-90
2021/11/04 04:37:11;;;;;;;93.80;28.77;;;7.90;99.90;;;;;;5134104;28;20027;-90
2021/11/04 14:58:25;;;;;;;117.28;52.40;;;9.70;99.90;;;;;;5066492;28;20379;-81
2021/11/04 15:00:50;;;;;;;105.50;51.70;;;9.60;99.90;;;;;;5062392;28;20502;-80
2021/11/04 15:03:16;;;;;;;110.90;53.63;;;9.60;99.90;;;;;;5065207;28;20032;-82
2021/11/04 15:05:42;;;;;;;103.25;52.03;;;9.70;99.90;;;;;;5067714;28;20095;-83
2021/11/04 15:08:07;;;;;;;102.65;53.15;;;9.70;99.90;;;;;;5067005;28;20063;-83
2021/11/04 15:10:36;;;;;;;115.80;55.05;;;9.90;99.90;;;;;;5067534;28;20017;-83
2021/11/04 15:13:02;;;;;;;99.07;50.58;;;9.90;99.90;;;;;;5068392;28;20075;-84
2021/11/04 15:15:27;;;;;;;96.45;49.70;;;9.90;99.90;;;;;;5069894;28;20020;-84
2021/11/04 15:17:53;;;;;;;87.47;46.20;;;9.90;99.90;;;;;;5065702;28;20468;-84
2021/11/04 15:20:19;;;;;;;77.88;44.17;;;9.90;99.90;;;;;;5065780;28;20024;-84
2021/11/04 15:22:45;;;;;;;73.32;42.25;;;10.00;99.90;;;;;;5068177;28;20059;-83
2021/11/04 15:25:10;;;;;;;83.15;43.53;;;10.00;99.90;;;;;;5068379;28;20103;-83
2021/11/04 15:27:36;;;;;;;77.15;41.85;;;10.00;99.90;;;;;;5067310;28;20024;-84
2021/11/04 15:30:02;;;;;;;80.88;42.20;;;10.10;99.90;;;;;;5067194;28;20078;-86
2021/11/04 15:32:28;;;;;;;80.07;43.85;;;10.10;99.90;;;;;;5067142;28;20020;-85
2021/11/04 15:34:54;;;;;;;78.75;43.22;;;10.20;99.90;;;;;;5068549;28;20035;-84
2021/11/04 15:37:19;;;;;;;93.20;45.25;;;10.20;99.90;;;;;;5068818;28;20539;-83
2021/11/04 15:39:45;;;;;;;88.20;46.38;;;10.20;99.90;;;;;;5067345;28;20029;-82
2021/11/04 15:42:11;;;;;;;81.97;43.08;;;10.20;99.90;;;;;;5067790;28;20025;-82
2021/11/04 15:44:37;;;;;;;82.65;41.45;;;10.20;99.90;;;;;;5070153;28;20106;-85
2021/11/04 15:47:02;;;;;;;82.00;42.17;;;10.30;99.90;;;;;;5069244;28;20162;-83
2021/11/04 15:49:29;;;;;;;85.95;43.75;;;10.30;99.90;;;;;;5067170;28;20028;-83
2021/11/04 15:51:55;;;;;;;82.20;43.80;;;10.30;99.90;;;;;;5067055;28;20019;-83
2021/11/04 15:54:21;;;;;;;82.35;43.58;;;10.30;99.90;;;;;;5068025;28;20020;-84
2021/11/04 15:56:46;;;;;;;86.50;44.75;;;10.30;99.90;;;;;;5069126;28;20048;-82
2021/11/04 15:59:12;;;;;;;83.75;44.10;;;10.30;99.90;;;;;;5069430;28;20540;-86
2021/11/04 16:01:38;;;;;;;84.97;44.38;;;10.30;99.90;;;;;;5067477;28;20494;-83
2021/11/04 16:04:04;;;;;;;77.15;42.05;;;10.30;99.90;;;;;;5067939;28;20376;-83
2021/11/04 16:06:37;;;;;;;79.95;44.38;;;10.30;99.90;;;;;;5069617;28;20066;-86
2021/11/04 16:09:05;;;;;;;89.53;45.30;;;10.30;99.90;;;;;;5058996;28;20028;-86
2021/11/04 16:11:31;;;;;;;84.43;44.10;;;10.20;99.90;;;;;;5052413;28;20048;-87
2021/11/04 16:13:57;;;;;;;80.43;42.53;;;10.20;99.90;;;;;;5055431;28;20092;-86
2021/11/04 16:16:23;;;;;;;86.65;43.55;;;10.20;99.90;;;;;;5053562;28;20551;-88
2021/11/04 16:18:49;;;;;;;87.15;43.88;;;10.30;99.90;;;;;;5051836;28;20021;-87
2021/11/04 16:21:14;;;;;;;86.82;43.45;;;10.30;99.90;;;;;;5052765;28;20021;-85
2021/11/04 16:23:40;;;;;;;76.75;42.40;;;10.30;99.90;;;;;;5053131;28;20361;-85
2021/11/04 16:26:05;;;;;;;78.25;41.78;;;10.30;99.90;;;;;;5051810;28;20075;-86
2021/11/04 16:28:31;;;;;;;82.55;43.25;;;10.20;99.90;;;;;;5047135;28;20040;-85
2021/11/04 16:30:57;;;;;;;83.18;42.25;;;10.30;99.90;;;;;;5040907;28;20032;-87
2021/11/04 16:33:23;;;;;;;76.88;40.10;;;10.20;99.90;;;;;;5039314;28;20028;-86
2021/11/04 16:35:48;;;;;;;72.13;39.25;;;10.30;99.90;;;;;;5031243;28;20100;-85
2021/11/04 16:38:14;;;;;;;77.38;40.85;;;10.30;99.90;;;;;;5046623;28;20115;-87
2021/11/04 16:40:40;;;;;;;74.00;38.90;;;10.30;99.90;;;;;;5048147;28;20025;-89
2021/11/04 16:43:06;;;;;;;73.72;40.10;;;10.30;99.90;;;;;;5047344;28;20098;-86
2021/11/04 16:45:33;;;;;;;79.25;42.33;;;10.30;99.90;;;;;;5051066;28;20078;-88
2021/11/04 16:48:01;;;;;;;81.53;41.92;;;10.20;99.90;;;;;;5051622;28;20107;-85
2021/11/04 16:50:27;;;;;;;75.97;40.45;;;10.20;99.90;;;;;;5049721;28;20025;-87
2021/11/04 16:52:53;;;;;;;77.93;40.85;;;10.20;99.90;;;;;;5051492;28;20029;-87
2021/11/04 16:55:19;;;;;;;75.22;38.75;;;10.20;99.90;;;;;;5039053;28;20017;-85
2021/11/04 16:57:45;;;;;;;83.57;41.53;;;10.20;99.90;;;;;;5047246;28;20078;-86
2021/11/04 17:00:13;;;;;;;71.25;36.95;;;10.30;99.90;;;;;;5043017;28;20036;-87
2021/11/04 17:02:39;;;;;;;69.45;36.35;;;10.30;99.90;;;;;;5047668;28;20395;-86
2021/11/04 17:05:07;;;;;;;69.13;35.75;;;10.20;99.90;;;;;;5050671;28;20025;-86
2021/11/04 17:07:33;;;;;;;72.13;36.53;;;10.30;99.90;;;;;;5052279;28;20083;-85
2021/11/04 17:09:59;;;;;;;60.85;33.92;;;10.30;99.90;;;;;;5053170;28;20075;-87
2021/11/04 17:12:25;;;;;;;66.65;34.58;;;10.20;99.90;;;;;;5051787;28;20446;-86
2021/11/04 17:14:53;;;;;;;63.10;33.35;;;10.20;99.90;;;;;;5052579;28;20445;-87
2021/11/04 17:17:19;;;;;;;68.72;35.15;;;10.30;99.90;;;;;;5052225;28;20032;-85
2021/11/04 17:19:45;;;;;;;65.72;33.83;;;10.20;99.90;;;;;;5050934;28;20047;-86
2021/11/04 17:22:10;;;;;;;64.93;32.88;;;10.30;99.90;;;;;;5053644;28;20403;-87
2021/11/04 17:24:36;;;;;;;66.95;33.95;;;10.30;99.90;;;;;;5052979;28;20040;-86
2021/11/04 17:27:02;;;;;;;59.17;32.95;;;10.30;99.90;;;;;;5050533;28;20044;-85
2021/11/04 17:29:27;;;;;;;59.92;33.85;;;10.30;99.90;;;;;;5052210;28;20017;-85
2021/11/04 17:31:53;;;;;;;65.50;33.78;;;10.30;99.90;;;;;;5051965;28;20025;-86
2021/11/04 17:34:19;;;;;;;74.05;34.30;;;10.30;99.90;;;;;;5053343;28;20032;-89
2021/11/04 17:36:45;;;;;;;65.50;34.60;;;10.30;99.90;;;;;;5053232;28;20098;-88
2021/11/04 17:39:13;;;;;;;67.20;37.13;;;10.30;99.90;;;;;;5052681;28;20044;-88
2021/11/04 17:41:40;;;;;;;71.25;37.80;;;10.30;99.90;;;;;;5052497;28;20531;-85
2021/11/04 17:44:07;;;;;;;69.35;36.50;;;10.30;99.90;;;;;;5054013;28;20048;-89
2021/11/04 17:46:33;;;;;;;70.60;35.35;;;10.30;99.90;;;;;;5052686;28;20017;-89
2021/11/04 17:48:59;;;;;;;69.82;36.22;;;10.30;99.90;;;;;;5052776;28;20476;-89
2021/11/04 17:51:25;;;;;;;70.40;35.47;;;10.30;99.90;;;;;;5050681;28;20027;-90
2021/11/04 17:53:51;;;;;;;70.18;36.30;;;10.30;99.90;;;;;;5034887;28;20112;-89
2021/11/04 17:56:17;;;;;;;68.85;37.28;;;10.30;99.90;;;;;;5046601;28;20052;-89
2021/11/04 17:58:43;;;;;;;62.72;33.92;;;10.20;99.90;;;;;;5051433;28;20379;-86
2021/11/04 18:01:09;;;;;;;63.42;34.55;;;10.30;99.90;;;;;;5052545;28;20024;-87
2021/11/04 18:03:35;;;;;;;62.35;33.50;;;10.30;99.90;;;;;;5051965;28;20021;-87
2021/11/04 18:06:01;;;;;;;67.72;34.75;;;10.20;99.90;;;;;;5051255;28;20479;-87
2021/11/04 18:08:27;;;;;;;68.75;34.47;;;10.30;99.90;;;;;;5051672;28;20048;-86
2021/11/04 18:10:53;;;;;;;62.92;33.15;;;10.40;99.90;;;;;;5052634;28;20069;-87
2021/11/04 18:13:19;;;;;;;63.25;33.85;;;10.40;99.90;;;;;;5050607;28;20035;-87
2021/11/04 18:15:45;;;;;;;63.60;34.28;;;10.40;99.90;;;;;;5032377;28;20021;-89
2021/11/04 18:18:10;;;;;;;66.70;33.97;;;10.40;99.90;;;;;;5033868;28;20025;-87
2021/11/04 18:20:37;;;;;;;63.40;33.95;;;10.40;99.90;;;;;;5031964;28;20033;-87
2021/11/04 18:23:03;;;;;;;63.33;35.42;;;10.30;99.90;;;;;;5032527;28;20025;-89
2021/11/04 18:25:29;;;;;;;60.67;33.42;;;10.40;99.90;;;;;;5031552;28;20439;-89
2021/11/04 18:27:55;;;;;;;56.83;32.30;;;10.40;99.90;;;;;;5032420;28;20060;-92
2021/11/04 18:30:21;;;;;;;60.88;32.83;;;10.30;99.90;;;;;;5030736;28;20083;-89
2021/11/04 18:32:47;;;;;;;61.53;34.08;;;10.40;99.90;;;;;;5032623;28;20037;-86
2021/11/04 18:35:12;;;;;;;61.67;33.58;;;10.40;99.90;;;;;;5018560;28;21147;-88
2021/11/04 18:37:38;;;;;;;61.70;33.33;;;10.40;99.90;;;;;;5022744;28;20435;-89
2021/11/04 18:40:05;;;;;;;59.90;33.05;;;10.40;99.90;;;;;;5027343;28;20022;-87
2021/11/04 18:42:31;;;;;;;62.47;34.15;;;10.40;99.90;;;;;;5038555;28;20108;-90
2021/11/04 18:45:02;;;;;;;60.53;33.50;;;10.40;99.90;;;;;;5051082;28;20519;-87
2021/11/04 18:47:28;;;;;;;63.10;34.00;;;10.40;99.90;;;;;;5052738;28;20021;-88
2021/11/04 18:49:56;;;;;;;65.70;33.97;;;10.40;99.90;;;;;;5051949;28;20472;-92
2021/11/04 18:52:22;;;;;;;63.90;34.65;;;10.40;99.90;;;;;;5038446;28;20128;-89
2021/11/04 18:54:47;;;;;;;63.13;34.70;;;10.40;99.90;;;;;;5051597;28;20447;-88
2021/11/04 18:57:14;;;;;;;62.33;34.97;;;10.40;99.90;;;;;;5053130;28;20056;-88
2021/11/04 18:59:39;;;;;;;64.55;35.00;;;10.40;99.90;;;;;;5051637;28;20391;-89
2021/11/04 19:02:05;;;;;;;59.83;33.90;;;10.40;99.90;;;;;;5053264;28;20036;-87
2021/11/04 19:04:31;;;;;;;68.50;35.20;;;10.40;99.90;;;;;;5051955;28;20433;-87
2021/11/04 19:06:59;;;;;;;62.88;34.17;;;10.40;99.90;;;;;;5052521;28;20514;-87
2021/11/04 19:09:27;;;;;;;65.82;33.38;;;10.40;99.90;;;;;;5077381;28;20021;-84
2021/11/04 19:11:53;;;;;;;64.82;35.50;;;10.50;99.90;;;;;;5035786;28;20116;-86
2021/11/04 19:14:19;;;;;;;66.57;36.17;;;10.40;99.90;;;;;;5030814;28;20025;-86
2021/11/04 19:16:46;;;;;;;64.57;34.25;;;10.40;99.90;;;;;;5028723;28;20045;-86
2021/11/04 19:19:12;;;;;;;68.68;35.35;;;10.40;99.90;;;;;;5034696;28;20155;-88
2021/11/04 19:21:38;;;;;;;66.28;33.88;;;10.40;99.90;;;;;;5042856;28;20028;-86
2021/11/04 19:24:04;;;;;;;65.78;33.58;;;10.40;99.90;;;;;;5032440;28;20018;-88
2021/11/04 19:26:30;;;;;;;62.63;33.47;;;10.50;99.90;;;;;;5031422;28;20039;-87
2021/11/04 19:28:57;;;;;;;61.35;32.15;;;10.50;99.90;;;;;;5031043;28;20029;-86
2021/11/04 19:31:24;;;;;;;62.30;33.10;;;10.50;99.90;;;;;;5032674;28;20025;-86
2021/11/04 19:33:51;;;;;;;62.60;33.42;;;10.60;99.90;;;;;;5036949;28;20026;-89
2021/11/04 19:36:17;;;;;;;63.85;33.35;;;10.50;99.90;;;;;;5048486;28;20476;-88
2021/11/04 19:38:42;;;;;;;65.50;34.83;;;10.50;99.90;;;;;;5048232;28;20068;-91
2021/11/04 19:41:09;;;;;;;69.70;37.17;;;10.50;99.90;;;;;;5048191;28;20388;-91
2021/11/04 19:43:36;;;;;;;68.38;36.58;;;10.60;99.90;;;;;;5065850;28;20029;-90
2021/11/04 19:46:02;;;;;;;65.18;36.33;;;10.50;99.90;;;;;;5052826;28;20373;-91
2021/11/04 19:48:29;;;;;;;67.82;37.10;;;10.60;99.90;;;;;;5036682;28;20025;-90
2021/11/04 19:50:55;;;;;;;74.07;39.53;;;10.70;99.90;;;;;;5035365;28;20091;-90
2021/11/04 19:53:21;;;;;;;75.30;39.03;;;10.60;99.90;;;;;;5034625;28;20366;-91
2021/11/04 19:55:48;;;;;;;75.90;39.05;;;10.60;99.90;;;;;;5035170;28;20018;-90
2021/11/04 19:58:13;;;;;;;74.18;38.70;;;10.70;99.90;;;;;;5031928;28;20061;-90
2021/11/04 20:00:39;;;;;;;71.45;37.50;;;10.70;99.90;;;;;;5069467;28;20377;-88
2021/11/04 20:03:06;;;;;;;68.28;36.63;;;10.70;99.90;;;;;;5065443;28;20037;-90
2021/11/04 20:05:32;;;;;;;61.22;34.10;;;10.70;99.90;;;;;;5034959;28;20079;-91
2021/11/04 20:07:58;;;;;;;71.78;37.30;;;10.80;99.90;;;;;;5039295;28;20025;-87
2021/11/04 20:10:26;;;;;;;67.45;35.00;;;10.80;99.90;;;;;;5051052;28;20032;-85
2021/11/04 20:12:53;;;;;;;65.60;36.88;;;10.80;99.90;;;;;;5053416;28;20048;-86
2021/11/04 20:15:20;;;;;;;64.43;35.60;;;10.80;99.90;;;;;;5054996;28;20025;-86
2021/11/04 20:17:46;;;;;;;67.10;37.92;;;10.70;99.90;;;;;;5053523;28;20041;-85
2021/11/04 20:20:15;;;;;;;66.32;35.78;;;10.80;99.90;;;;;;5053273;28;20543;-85
2021/11/04 20:22:41;;;;;;;68.15;36.22;;;10.80;99.90;;;;;;5054113;28;20036;-85
2021/11/04 20:25:10;;;;;;;69.32;36.75;;;10.80;99.90;;;;;;5053251;28;20043;-85
2021/11/04 20:27:37;;;;;;;69.75;37.53;;;10.80;99.90;;;;;;5053476;28;20025;-85
2021/11/04 20:30:04;;;;;;;67.97;35.95;;;10.80;99.90;;;;;;5052723;28;20029;-85
2021/11/04 20:32:30;;;;;;;73.20;40.53;;;10.80;99.90;;;;;;5052162;28;20021;-86
2021/11/04 20:34:56;;;;;;;71.25;38.25;;;10.80;99.90;;;;;;5033664;28;20431;-84
2021/11/04 20:37:21;;;;;;;71.18;37.42;;;10.80;99.90;;;;;;5033280;28;20036;-85
2021/11/04 20:39:50;;;;;;;66.25;35.83;;;10.90;99.90;;;;;;5033889;28;20053;-85
2021/11/04 20:42:23;;;;;;;72.63;38.03;;;10.90;99.90;;;;;;5031016;28;20051;-85
2021/11/04 20:44:49;;;;;;;79.53;37.55;;;10.90;99.90;;;;;;5032267;28;20530;-85
2021/11/04 20:47:15;;;;;;;73.05;38.50;;;10.90;99.90;;;;;;5032112;28;20037;-84
2021/11/04 20:49:41;;;;;;;73.30;38.45;;;10.90;99.90;;;;;;5038781;28;20024;-85
2021/11/04 20:52:07;;;;;;;71.13;38.30;;;10.90;99.90;;;;;;5052364;28;20028;-85
2021/11/04 20:54:33;;;;;;;77.82;40.90;;;11.00;99.90;;;;;;5040199;28;20033;-85
2021/11/04 20:56:59;;;;;;;74.65;38.80;;;10.90;99.90;;;;;;5019524;28;20087;-85
2021/11/04 20:59:26;;;;;;;78.30;41.33;;;11.00;99.90;;;;;;5033675;28;20026;-85
2021/11/04 21:01:55;;;;;;;85.25;43.05;;;11.00;99.90;;;;;;5032455;28;20056;-86
2021/11/04 21:04:22;;;;;;;82.50;42.28;;;11.00;99.90;;;;;;5017021;28;20022;-84
2021/11/04 21:06:51;;;;;;;84.53;42.55;;;10.90;99.90;;;;;;5032513;28;20144;-84
2021/11/04 21:09:19;;;;;;;83.03;42.38;;;11.00;99.90;;;;;;5016848;28;20033;-85
2021/11/04 21:11:45;;;;;;;84.20;43.90;;;11.00;99.90;;;;;;5041472;28;20156;-85
2021/11/04 21:14:12;;;;;;;85.53;42.45;;;11.00;99.90;;;;;;5052682;28;20025;-86
2021/11/04 21:16:39;;;;;;;96.47;45.33;;;11.00;99.90;;;;;;5052941;28;20025;-85
2021/11/04 21:19:05;;;;;;;93.10;44.42;;;11.00;99.90;;;;;;5054280;28;20353;-86
2021/11/04 21:21:36;;;;;;;91.03;44.15;;;11.00;99.90;;;;;;5047112;28;20032;-85
2021/11/04 21:24:03;;;;;;;93.90;46.38;;;11.00;99.90;;;;;;5023802;28;20400;-85
2021/11/04 21:26:30;;;;;;;99.78;46.88;;;11.00;99.90;;;;;;5053552;28;20112;-86
2021/11/04 21:28:57;;;;;;;97.75;46.63;;;10.90;99.90;;;;;;5036239;28;20859;-87
2021/11/04 21:31:24;;;;;;;97.35;46.42;;;11.00;99.90;;;;;;5033530;28;20116;-85
2021/11/04 21:33:52;;;;;;;102.57;47.05;;;11.00;99.90;;;;;;5034876;28;20025;-86
2021/11/04 21:36:18;;;;;;;106.05;51.15;;;11.10;99.90;;;;;;5034502;28;20025;-85
2021/11/04 21:38:44;;;;;;;107.90;50.80;;;11.00;99.90;;;;;;5032438;28;20461;-86
2021/11/04 21:41:12;;;;;;;122.55;52.30;;;11.00;99.90;;;;;;5033180;28;20017;-85
2021/11/04 21:43:39;;;;;;;121.07;55.65;;;11.00;99.90;;;;;;5050626;28;20025;-85
2021/11/04 21:46:05;;;;;;;123.40;55.58;;;11.00;99.90;;;;;;5035926;28;20036;-86
2021/11/04 21:48:33;;;;;;;125.32;57.35;;;11.00;99.90;;;;;;5051942;28;20025;-86
2021/11/04 21:51:00;;;;;;;138.55;59.47;;;11.00;99.90;;;;;;5054610;28;20044;-85
2021/11/04 21:53:27;;;;;;;149.80;61.65;;;11.00;99.90;;;;;;5053237;28;20037;-85
2021/11/04 21:55:54;;;;;;;147.95;62.00;;;11.00;99.90;;;;;;5052463;28;20020;-86
2021/11/04 21:58:19;;;;;;;165.73;62.95;;;11.00;99.90;;;;;;5035991;28;20159;-86
2021/11/04 22:00:45;;;;;;;173.27;67.72;;;11.00;99.90;;;;;;5051695;28;20520;-86
2021/11/04 22:03:12;;;;;;;181.93;71.38;;;11.00;99.90;;;;;;5033886;28;20388;-85
2021/11/04 22:05:38;;;;;;;191.90;71.85;;;11.00;99.90;;;;;;5032975;28;20476;-86
2021/11/04 22:08:04;;;;;;;183.82;71.55;;;10.90;99.90;;;;;;5033019;28;20078;-86
2021/11/04 22:10:30;;;;;;;200.63;73.85;;;11.00;99.90;;;;;;5033022;28;20021;-86
2021/11/04 22:12:57;;;;;;;201.45;75.15;;;11.00;99.90;;;;;;5033319;28;20435;-85
2021/11/04 22:15:24;;;;;;;222.70;77.45;;;11.00;99.90;;;;;;5049652;28;20480;-86
2021/11/04 22:17:50;;;;;;;237.82;78.88;;;11.00;99.90;;;;;;5033061;28;20146;-86
2021/11/04 22:20:17;;;;;;;231.40;78.82;;;11.00;99.90;;;;;;5033639;28;20506;-85
2021/11/04 22:22:44;;;;;;;246.82;80.88;;;11.00;99.90;;;;;;5052780;28;20156;-86
2021/11/04 22:25:12;;;;;;;243.63;77.75;;;11.00;99.90;;;;;;5052793;28;20021;-86
2021/11/04 22:27:39;;;;;;;249.35;74.35;;;11.10;99.90;;;;;;5054236;28;20033;-86
2021/11/04 22:30:11;;;;;;;253.10;80.05;;;11.10;99.90;;;;;;5053972;28;20078;-86
2021/11/04 22:32:37;;;;;;;254.52;79.22;;;11.10;99.90;;;;;;5036385;28;20029;-85
2021/11/04 22:35:04;;;;;;;282.02;82.68;;;11.10;99.90;;;;;;5052827;28;20032;-86
2021/11/04 22:37:30;;;;;;;284.92;82.15;;;11.10;99.90;;;;;;5052849;28;20025;-86
2021/11/04 22:39:56;;;;;;;305.77;83.43;;;11.10;99.90;;;;;;5051226;28;20025;-85
2021/11/04 22:42:23;;;;;;;311.95;83.90;;;11.10;99.90;;;;;;5033919;28;20029;-86